Time;durP1;ratioP1;P1;durP2;ratioP2;P2;SDS_P1;SDS_P2;PMS_P1;PMS_P2;Temp;Humidity;BMP_temperature;BMP_pressure;BME280_temperature;BME280_humidity;BME280_pressure;Samples;Min_cycle;Max_cycle;Signal;HPM_P1;HPM_P2
2023/06/10 00:02:10;;;;;;;12.05;8.75;;;;;;;21.32;61.06;101314.72;5011113;28;20045;-70
2023/06/10 00:04:38;;;;;;;13.55;8.45;;;;;;;21.30;60.91;101316.91;5011008;28;20053;-70
2023/06/10 00:07:08;;;;;;;13.15;8.98;;;;;;;21.24;61.25;101307.06;5011104;28;20042;-70
2023/06/10 00:09:37;;;;;;;12.75;8.80;;;;;;;21.23;61.77;101313.56;5011010;28;20029;-70
2023/06/10 00:12:07;;;;;;;13.63;9.63;;;;;;;21.16;62.04;101310.25;5011030;28;20528;-70
2023/06/10 00:14:33;;;;;;;14.82;9.82;;;;;;;21.11;61.97;101315.63;5010821;28;20473;-70
2023/06/10 00:16:59;;;;;;;14.73;9.52;;;;;;;21.11;62.04;101319.13;4993083;28;20034;-70
2023/06/10 00:19:29;;;;;;;13.45;9.38;;;;;;;21.02;62.48;101315.25;5010551;28;20041;-70
2023/06/10 00:21:56;;;;;;;14.27;9.38;;;;;;;20.99;62.81;101321.19;5010777;28;20089;-70
2023/06/10 00:24:21;;;;;;;15.65;9.48;;;;;;;20.96;62.62;101324.44;5010575;28;20498;-70
2023/06/10 00:26:47;;;;;;;16.30;9.10;;;;;;;20.91;62.83;101317.06;5010719;28;20041;-70
2023/06/10 00:29:13;;;;;;;16.15;9.95;;;;;;;20.84;63.71;101319.13;5010610;28;20029;-70
2023/06/10 00:31:38;;;;;;;15.65;9.98;;;;;;;20.86;62.91;101317.00;4992855;28;20391;-70
2023/06/10 00:34:04;;;;;;;13.80;8.07;;;;;;;20.83;63.11;101313.94;5010513;28;20021;-70
2023/06/10 00:36:30;;;;;;;13.90;9.73;;;;;;;20.70;63.56;101310.56;5010705;28;20120;-70
2023/06/10 00:38:55;;;;;;;14.93;9.18;;;;;;;20.69;63.77;101316.25;5010314;28;20116;-70
2023/06/10 00:41:21;;;;;;;13.60;9.68;;;;;;;20.65;63.69;101325.97;5010685;28;20034;-70
2023/06/10 00:43:46;;;;;;;13.10;9.02;;;;;;;20.63;63.85;101325.38;5010437;28;20128;-70
2023/06/10 00:46:13;;;;;;;13.05;8.90;;;;;;;20.57;63.92;101321.81;5010244;28;20029;-70
2023/06/10 00:48:41;;;;;;;14.38;9.10;;;;;;;20.50;64.44;101319.22;5010204;28;20034;-70
2023/06/10 00:51:08;;;;;;;12.00;8.38;;;;;;;20.47;64.37;101333.28;5010181;28;20030;-70
2023/06/10 00:53:35;;;;;;;14.82;8.85;;;;;;;20.42;64.40;101335.94;4993237;28;20084;-70
2023/06/10 00:56:00;;;;;;;13.75;8.80;;;;;;;20.38;64.99;101328.53;4992607;28;20399;-70
2023/06/10 00:58:26;;;;;;;13.98;9.88;;;;;;;20.39;64.85;101330.19;5009644;28;20021;-70
2023/06/10 01:00:53;;;;;;;12.93;8.75;;;;;;;20.35;64.99;101324.44;5009851;28;20065;-70
2023/06/10 01:03:18;;;;;;;14.77;8.80;;;;;;;20.29;65.62;101328.97;5009946;28;20551;-70
2023/06/10 01:05:51;;;;;;;13.85;9.27;;;;;;;20.23;65.86;101327.28;5010002;28;20072;-70
2023/06/10 01:08:38;;;;;;;13.73;9.45;;;;;;;20.25;65.07;101327.84;5010073;28;20091;-70
2023/06/10 01:11:07;;;;;;;14.40;9.60;;;;;;;20.19;66.25;101326.13;5009637;28;20029;-70
2023/06/10 01:13:36;;;;;;;12.93;9.50;;;;;;;20.18;66.20;101318.25;5009690;28;20026;-70
2023/06/10 01:16:02;;;;;;;13.27;9.73;;;;;;;20.13;66.94;101322.53;5009739;28;20045;-70
2023/06/10 01:18:31;;;;;;;12.35;8.30;;;;;;;20.08;66.73;101327.88;4991784;28;20502;-70
2023/06/10 01:20:57;;;;;;;12.90;9.05;;;;;;;20.01;67.42;101332.63;5009705;28;20034;-70
2023/06/10 01:23:23;;;;;;;13.25;9.73;;;;;;;19.99;67.53;101328.53;5009358;28;20057;-70
2023/06/10 01:25:55;;;;;;;15.48;9.20;;;;;;;19.97;67.66;101336.09;5009562;28;20042;-70
2023/06/10 01:28:38;;;;;;;13.15;9.80;;;;;;;19.96;67.14;101334.44;5009484;28;20083;-70
2023/06/10 01:31:21;;;;;;;16.73;9.57;;;;;;;19.87;67.93;101326.75;5009469;28;20112;-70
2023/06/10 01:33:49;;;;;;;14.88;10.20;;;;;;;19.85;68.57;101331.56;4990783;28;20023;-70
2023/06/10 01:36:17;;;;;;;14.20;9.40;;;;;;;19.81;68.92;101332.34;4973541;28;20061;-70
2023/06/10 01:38:44;;;;;;;15.38;10.13;;;;;;;19.79;68.95;101342.59;4990640;28;20037;-70
2023/06/10 01:41:13;;;;;;;14.43;9.57;;;;;;;19.73;69.59;101330.00;4990701;28;20030;-70
2023/06/10 01:43:38;;;;;;;15.52;10.77;;;;;;;19.68;69.83;101336.19;4990428;28;20025;-70
2023/06/10 01:46:05;;;;;;;15.30;10.55;;;;;;;19.63;71.10;101331.47;4990511;28;20482;-70
2023/06/10 01:48:30;;;;;;;13.23;9.25;;;;;;;19.59;70.81;101333.00;4990694;28;20437;-70
2023/06/10 01:50:56;;;;;;;16.08;10.40;;;;;;;19.53;71.28;101325.88;4990384;28;20030;-70
2023/06/10 01:53:22;;;;;;;14.23;9.80;;;;;;;19.47;72.15;101332.28;4990496;28;20044;-70
2023/06/10 01:55:47;;;;;;;14.30;9.98;;;;;;;19.47;71.18;101329.56;4990609;28;20022;-70
2023/06/10 01:58:13;;;;;;;14.45;9.27;;;;;;;19.43;71.67;101331.13;4990215;28;20061;-70
2023/06/10 02:00:38;;;;;;;16.25;9.88;;;;;;;19.36;72.02;101328.59;4990259;28;20122;-70
2023/06/10 02:03:03;;;;;;;16.98;10.32;;;;;;;19.35;72.37;101337.75;4990334;28;20046;-70
2023/06/10 02:05:29;;;;;;;15.23;9.95;;;;;;;19.25;73.13;101329.44;4990094;28;20026;-70
2023/06/10 02:07:54;;;;;;;15.20;9.93;;;;;;;19.26;72.86;101328.41;4990253;28;20074;-70
2023/06/10 02:10:20;;;;;;;16.63;9.77;;;;;;;19.22;73.14;101335.34;4989221;28;20030;-70
2023/06/10 02:12:45;;;;;;;17.00;11.02;;;;;;;19.19;73.30;101336.66;4972907;28;20481;-70
2023/06/10 02:15:10;;;;;;;13.80;9.48;;;;;;;19.17;73.60;101338.75;4990373;28;20500;-70
2023/06/10 02:17:36;;;;;;;16.58;11.18;;;;;;;19.14;73.54;101336.56;4989852;28;20489;-70
2023/06/10 02:20:07;;;;;;;19.48;11.27;;;;;;;19.11;73.63;101338.94;4989915;28;20049;-70
2023/06/10 02:22:32;;;;;;;15.38;10.85;;;;;;;19.13;74.11;101337.63;4989714;28;20054;-70
2023/06/10 02:24:58;;;;;;;21.40;12.20;;;;;;;19.08;74.47;101350.22;4989871;28;20432;-70
2023/06/10 02:27:23;;;;;;;14.75;11.00;;;;;;;19.01;74.53;101342.25;4990043;28;20038;-70
2023/06/10 02:29:49;;;;;;;17.25;11.57;;;;;;;18.94;74.62;101347.81;4990040;28;20116;-70
2023/06/10 02:32:14;;;;;;;16.98;10.73;;;;;;;18.95;74.99;101341.34;4989894;28;20042;-70
2023/06/10 02:34:39;;;;;;;15.65;10.23;;;;;;;18.93;75.63;101348.03;4972342;28;20027;-70
2023/06/10 02:37:05;;;;;;;15.70;10.98;;;;;;;18.85;75.83;101337.59;4989726;28;20358;-70
2023/06/10 02:39:30;;;;;;;16.20;10.80;;;;;;;18.87;75.87;101352.53;4989818;28;20026;-70
2023/06/10 02:41:56;;;;;;;18.35;10.73;;;;;;;18.84;76.15;101347.59;4988475;28;20602;-70
2023/06/10 02:44:21;;;;;;;16.95;10.82;;;;;;;18.82;76.87;101350.53;4989554;28;20037;-70
2023/06/10 02:46:46;;;;;;;16.50;11.20;;;;;;;18.79;76.31;101348.31;4989838;28;20477;-70
2023/06/10 02:49:12;;;;;;;16.13;10.60;;;;;;;18.83;76.19;101345.94;4972563;28;20042;-70
2023/06/10 02:51:38;;;;;;;17.83;11.63;;;;;;;18.77;76.74;101350.44;4989777;28;20585;-70
2023/06/10 02:54:04;;;;;;;19.95;11.50;;;;;;;18.76;76.65;101345.28;4989641;28;20113;-70
2023/06/10 02:56:30;;;;;;;18.85;11.80;;;;;;;18.77;76.62;101345.03;4989857;28;20132;-70
2023/06/10 02:58:55;;;;;;;18.23;11.48;;;;;;;18.70;77.09;101349.69;4989805;28;20485;-70
2023/06/10 03:01:21;;;;;;;16.20;11.52;;;;;;;18.65;77.46;101348.78;4989603;28;20125;-70
2023/06/10 03:03:46;;;;;;;15.63;10.38;;;;;;;18.64;77.32;101347.97;4989534;28;20085;-70
2023/06/10 03:06:12;;;;;;;16.33;10.30;;;;;;;18.60;77.19;101350.31;4989807;28;20381;-70
2023/06/10 03:08:38;;;;;;;16.20;11.20;;;;;;;18.58;77.70;101357.03;4989689;28;20495;-70
2023/06/10 03:11:04;;;;;;;15.55;10.52;;;;;;;18.54;77.60;101345.03;4989687;28;20027;-70
2023/06/10 03:13:29;;;;;;;14.68;9.73;;;;;;;18.55;78.04;101357.50;4972051;28;20454;-70
2023/06/10 03:15:54;;;;;;;16.52;10.00;;;;;;;18.56;77.75;101351.84;4989636;28;20319;-70
2023/06/10 03:18:20;;;;;;;16.45;10.93;;;;;;;18.45;78.02;101347.28;4971972;28;20096;-70
2023/06/10 03:20:45;;;;;;;14.95;10.48;;;;;;;18.52;77.56;101360.66;4972656;28;20306;-70
2023/06/10 03:23:11;;;;;;;17.77;11.02;;;;;;;18.45;77.79;101358.09;4975337;28;20053;-71
2023/06/10 03:25:36;;;;;;;15.75;10.82;;;;;;;18.45;78.36;101362.69;4993181;28;20050;-70
2023/06/10 03:28:02;;;;;;;16.58;10.48;;;;;;;18.41;78.77;101356.91;4975531;28;20038;-70
2023/06/10 03:30:28;;;;;;;16.58;10.60;;;;;;;18.38;78.56;101362.78;4992941;28;20037;-70
2023/06/10 03:32:53;;;;;;;16.48;11.32;;;;;;;18.38;78.31;101366.31;4975519;28;20040;-70
2023/06/10 03:35:18;;;;;;;14.77;9.80;;;;;;;18.33;78.53;101358.09;4975697;28;20137;-70
2023/06/10 03:37:44;;;;;;;18.63;11.98;;;;;;;18.36;78.58;101373.00;4992959;28;20034;-70
2023/06/10 03:40:09;;;;;;;16.77;10.57;;;;;;;18.36;78.06;101371.13;4992966;28;20412;-70
2023/06/10 03:42:35;;;;;;;15.90;9.18;;;;;;;18.33;78.46;101368.06;4992948;28;20913;-70
2023/06/10 03:45:01;;;;;;;15.52;9.90;;;;;;;18.33;78.51;101376.19;4992732;28;20073;-70
2023/06/10 03:47:33;;;;;;;17.23;10.93;;;;;;;18.31;78.36;101368.34;4992533;28;20516;-70
2023/06/10 03:49:58;;;;;;;17.20;9.95;;;;;;;18.33;78.13;101376.19;4992549;28;20034;-70
2023/06/10 03:52:23;;;;;;;16.02;10.52;;;;;;;18.35;78.47;101382.19;4992617;28;20121;-70
2023/06/10 03:54:49;;;;;;;16.08;9.90;;;;;;;18.31;77.67;101378.28;4992538;28;20116;-71
2023/06/10 03:57:14;;;;;;;17.35;11.57;;;;;;;18.32;77.75;101383.47;4992388;28;20038;-70
2023/06/10 03:59:39;;;;;;;19.88;11.40;;;;;;;18.26;78.22;101375.47;4992443;28;20034;-70
2023/06/10 04:02:06;;;;;;;15.55;10.20;;;;;;;18.26;77.56;101368.22;4992451;28;20030;-70
2023/06/10 04:04:32;;;;;;;17.92;9.73;;;;;;;18.31;77.96;101379.13;4992226;28;20418;-70
2023/06/10 04:06:57;;;;;;;15.93;9.80;;;;;;;18.34;78.19;101383.25;4992433;28;20049;-70
2023/06/10 04:09:22;;;;;;;16.13;9.57;;;;;;;18.33;77.43;101378.88;4974866;28;20061;-70
2023/06/10 04:11:48;;;;;;;17.75;10.95;;;;;;;18.38;77.33;101382.50;4992293;28;20037;-70
2023/06/10 04:14:13;;;;;;;14.10;9.68;;;;;;;18.37;77.30;101382.78;4992743;28;20117;-70
2023/06/10 04:16:39;;;;;;;17.17;9.45;;;;;;;18.41;76.98;101378.53;4992147;28;20096;-70
2023/06/10 04:19:04;;;;;;;16.17;9.93;;;;;;;18.45;76.92;101385.13;4991966;28;20031;-70
2023/06/10 04:21:30;;;;;;;17.88;10.10;;;;;;;18.44;76.13;101388.03;4991916;28;20394;-70
2023/06/10 04:23:55;;;;;;;17.42;9.10;;;;;;;18.42;76.82;101390.16;4974552;28;20113;-70
2023/06/10 04:26:21;;;;;;;14.55;8.55;;;;;;;18.46;77.10;101381.34;4992022;28;20030;-70
2023/06/10 04:28:47;;;;;;;16.67;10.20;;;;;;;18.51;76.09;101391.44;4992129;28;20065;-70
2023/06/10 04:31:12;;;;;;;18.83;8.98;;;;;;;18.52;76.21;101395.78;4991781;28;20501;-70
2023/06/10 04:33:37;;;;;;;19.58;9.50;;;;;;;18.50;76.99;101395.22;4990800;28;20042;-70
2023/06/10 04:36:03;;;;;;;18.65;9.30;;;;;;;18.46;76.07;101385.94;4991861;28;20038;-70
2023/06/10 04:38:30;;;;;;;18.98;9.45;;;;;;;18.53;75.88;101394.75;4991666;28;20077;-70
2023/06/10 04:40:56;;;;;;;14.48;8.80;;;;;;;18.64;75.87;101398.47;4991790;28;20065;-70
2023/06/10 04:43:21;;;;;;;14.40;8.00;;;;;;;18.69;75.16;101402.13;4991362;28;20528;-70
2023/06/10 04:45:47;;;;;;;15.70;8.52;;;;;;;18.78;74.86;101405.28;4991483;28;20026;-70
2023/06/10 04:48:13;;;;;;;17.30;9.10;;;;;;;18.81;74.57;101397.56;4991734;28;20113;-70
2023/06/10 04:50:38;;;;;;;20.80;8.50;;;;;;;18.83;75.60;101408.91;4991513;28;20038;-70
2023/06/10 04:53:04;;;;;;;20.40;9.82;;;;;;;18.85;75.40;101400.59;4991422;28;20030;-70
2023/06/10 04:55:29;;;;;;;21.58;9.88;;;;;;;18.83;74.95;101392.69;4991374;28;20018;-70
2023/06/10 04:57:55;;;;;;;12.40;8.10;;;;;;;18.91;74.65;101406.91;4991693;28;20504;-70
2023/06/10 05:00:20;;;;;;;14.73;9.20;;;;;;;18.95;75.10;101403.50;4990988;28;20424;-70
2023/06/10 05:02:49;;;;;;;13.45;8.50;;;;;;;19.01;75.07;101399.03;5010191;28;20033;-70
2023/06/10 05:05:16;;;;;;;13.45;8.73;;;;;;;19.08;73.82;101399.72;5010078;28;20045;-70
2023/06/10 05:07:41;;;;;;;15.45;9.77;;;;;;;19.21;73.95;101404.03;5010213;28;20424;-70
2023/06/10 05:10:07;;;;;;;22.70;9.88;;;;;;;19.29;73.58;101406.34;5004894;28;20038;-70
2023/06/10 05:12:32;;;;;;;18.90;9.63;;;;;;;19.26;74.44;101404.94;4991505;28;20085;-70
2023/06/10 05:14:57;;;;;;;17.70;8.48;;;;;;;19.30;73.93;101404.44;4991171;28;20033;-70
2023/06/10 05:17:23;;;;;;;27.65;10.38;;;;;;;19.39;73.76;101406.53;4991123;28;20030;-70
2023/06/10 05:19:49;;;;;;;19.90;9.27;;;;;;;19.44;72.78;101405.78;4991164;28;20121;-71
2023/06/10 05:22:16;;;;;;;16.85;8.43;;;;;;;19.48;72.76;101404.25;4990955;28;20054;-71
2023/06/10 05:24:41;;;;;;;13.45;9.27;;;;;;;19.50;72.33;101412.97;4991023;28;20077;-71
2023/06/10 05:27:06;;;;;;;13.77;7.75;;;;;;;19.48;74.20;101401.56;4991215;28;20054;-70
2023/06/10 05:29:33;;;;;;;14.73;8.35;;;;;;;19.55;71.88;101410.34;4973561;28;20042;-70
2023/06/10 05:32:02;;;;;;;15.95;7.57;;;;;;;19.54;72.22;101397.88;4991011;28;20069;-70
2023/06/10 05:34:28;;;;;;;16.85;8.18;;;;;;;19.57;72.84;101410.94;4991008;28;20053;-70
2023/06/10 05:36:53;;;;;;;18.60;9.45;;;;;;;19.58;72.67;101407.16;4990827;28;20034;-71
2023/06/10 05:39:19;;;;;;;29.40;8.82;;;;;;;19.61;73.00;101403.13;4990951;28;20046;-70
2023/06/10 05:41:46;;;;;;;17.95;8.38;;;;;;;19.69;72.59;101409.00;4973364;28;20030;-70
2023/06/10 05:44:11;;;;;;;12.82;7.45;;;;;;;19.74;71.69;101407.47;4990504;28;20421;-70
2023/06/10 05:46:37;;;;;;;19.85;9.50;;;;;;;19.79;73.20;101410.25;4973412;28;20038;-70
2023/06/10 05:49:02;;;;;;;20.27;7.80;;;;;;;19.84;71.61;101407.63;4991081;28;20038;-70
2023/06/10 05:51:28;;;;;;;18.05;8.75;;;;;;;19.93;71.67;101411.56;4990676;28;20565;-70
2023/06/10 05:53:54;;;;;;;19.27;9.35;;;;;;;20.30;70.87;101414.63;4973371;28;20466;-70
2023/06/10 05:56:21;;;;;;;24.08;9.07;;;;;;;20.64;68.75;101414.56;4990575;28;20034;-70
2023/06/10 05:58:46;;;;;;;16.38;8.50;;;;;;;20.85;67.61;101418.38;4990574;28;20168;-70
2023/06/10 06:01:12;;;;;;;16.00;8.00;;;;;;;21.05;66.61;101417.00;4990501;28;20129;-70
2023/06/10 06:03:37;;;;;;;18.60;7.85;;;;;;;20.93;66.87;101411.69;4990027;28;20037;-70
2023/06/10 06:06:03;;;;;;;19.35;8.82;;;;;;;20.73;67.95;101414.97;4990668;28;20026;-70
2023/06/10 06:08:29;;;;;;;15.35;7.32;;;;;;;20.52;66.89;101408.41;4990387;28;20121;-71
2023/06/10 06:10:54;;;;;;;15.85;8.45;;;;;;;20.51;68.21;101409.47;4990236;28;20030;-70
2023/06/10 06:13:20;;;;;;;18.17;8.20;;;;;;;20.45;69.23;101413.19;4990351;28;20441;-70
2023/06/10 06:15:45;;;;;;;17.73;8.82;;;;;;;20.46;68.33;101423.78;4990444;28;20206;-70
2023/06/10 06:18:11;;;;;;;12.98;8.23;;;;;;;20.46;68.44;101418.38;4990056;28;20034;-70
2023/06/10 06:20:36;;;;;;;14.50;7.40;;;;;;;20.49;68.34;101425.19;4973068;28;20030;-70
2023/06/10 06:23:01;;;;;;;15.43;7.93;;;;;;;20.53;68.41;101421.69;4989950;28;20050;-70
2023/06/10 06:25:27;;;;;;;17.60;7.57;;;;;;;20.60;68.16;101427.00;4989985;28;20069;-70
2023/06/10 06:27:52;;;;;;;14.82;6.97;;;;;;;20.55;68.17;101419.59;4990203;28;20099;-71
2023/06/10 06:30:17;;;;;;;18.30;9.00;;;;;;;20.62;68.63;101419.44;4972780;28;20420;-70
2023/06/10 06:32:43;;;;;;;14.45;8.32;;;;;;;20.67;68.31;101415.94;4972566;28;20088;-70
2023/06/10 06:35:08;;;;;;;14.38;8.38;;;;;;;20.67;68.51;101415.94;4990225;28;20026;-70
2023/06/10 06:37:34;;;;;;;15.27;7.55;;;;;;;20.74;67.85;101416.59;4973350;28;20473;-67
2023/06/10 06:40:00;;;;;;;18.08;7.97;;;;;;;20.81;68.01;101424.56;4990339;28;20520;-72
2023/06/10 06:42:25;;;;;;;12.13;6.32;;;;;;;20.78;67.75;101418.56;4992524;28;20030;-71
2023/06/10 06:44:51;;;;;;;13.65;6.70;;;;;;;20.90;66.34;101433.88;4990922;28;20099;-72
2023/06/10 06:47:19;;;;;;;16.83;8.50;;;;;;;20.92;67.25;101432.56;5008519;28;20037;-71
2023/06/10 06:49:47;;;;;;;14.10;8.23;;;;;;;20.96;68.19;101436.44;5008699;28;20049;-71
2023/06/10 06:52:13;;;;;;;14.57;6.80;;;;;;;21.03;68.69;101428.09;4990958;28;20106;-71
2023/06/10 06:54:39;;;;;;;12.50;6.90;;;;;;;21.14;67.58;101421.75;5008706;28;20041;-71
2023/06/10 06:57:05;;;;;;;14.20;8.65;;;;;;;21.26;66.64;101431.63;5011451;28;20069;-71
2023/06/10 06:59:31;;;;;;;20.15;8.27;;;;;;;21.31;66.57;101429.78;5006213;28;20072;-72
2023/06/10 07:01:56;;;;;;;12.52;7.00;;;;;;;21.34;65.23;101423.84;4993473;28;20026;-71
2023/06/10 07:04:22;;;;;;;15.85;7.28;;;;;;;21.39;64.00;101439.41;4993504;28;20048;-71
2023/06/10 07:06:48;;;;;;;16.70;7.55;;;;;;;21.40;64.83;101432.88;4975766;28;20437;-71
2023/06/10 07:09:13;;;;;;;19.77;8.27;;;;;;;21.43;64.06;101437.81;4984261;28;20033;-71
2023/06/10 07:11:38;;;;;;;14.55;8.30;;;;;;;21.46;63.43;101434.59;5012280;28;20071;-71
2023/06/10 07:14:04;;;;;;;15.20;7.35;;;;;;;21.49;63.36;101436.81;5012450;28;20473;-71
2023/06/10 07:16:29;;;;;;;12.15;7.22;;;;;;;21.58;64.26;101437.16;5012402;28;20140;-71
2023/06/10 07:18:55;;;;;;;14.23;7.57;;;;;;;21.66;65.73;101447.53;4996055;28;20026;-72
2023/06/10 07:21:20;;;;;;;14.55;7.00;;;;;;;21.69;64.44;101441.59;4996612;28;20026;-73
2023/06/10 07:23:45;;;;;;;17.67;8.55;;;;;;;21.75;62.68;101443.31;4997034;28;20066;-74
2023/06/10 07:26:13;;;;;;;13.65;7.47;;;;;;;21.79;62.66;101441.69;4996744;28;20042;-70
2023/06/10 07:28:39;;;;;;;14.23;8.18;;;;;;;21.82;62.33;101446.63;4980296;28;20389;-70
2023/06/10 07:31:04;;;;;;;15.07;7.00;;;;;;;21.88;61.61;101453.75;4963953;28;20039;-70
2023/06/10 07:33:30;;;;;;;14.20;7.95;;;;;;;21.95;61.34;101453.53;4979204;28;20022;-70
2023/06/10 07:35:55;;;;;;;13.48;7.65;;;;;;;21.97;61.53;101440.50;4998011;28;20102;-70
2023/06/10 07:38:21;;;;;;;14.65;6.65;;;;;;;22.03;62.43;101438.66;4962173;28;20030;-71
2023/06/10 07:40:46;;;;;;;12.93;6.28;;;;;;;22.14;62.52;101450.41;4996841;28;20100;-70
2023/06/10 07:43:13;;;;;;;17.45;8.13;;;;;;;22.19;60.14;101451.34;4979413;28;20043;-70
2023/06/10 07:45:42;;;;;;;12.73;7.25;;;;;;;22.22;61.17;101452.72;4996142;28;20026;-70
2023/06/10 07:48:07;;;;;;;13.98;6.90;;;;;;;22.26;61.57;101449.19;4996303;28;20088;-70
2023/06/10 07:50:33;;;;;;;17.15;7.65;;;;;;;22.36;62.06;101458.50;4997327;28;20030;-70
2023/06/10 07:52:58;;;;;;;14.43;6.30;;;;;;;22.45;62.58;101452.34;4996839;28;20030;-71
2023/06/10 07:55:25;;;;;;;20.90;7.30;;;;;;;22.46;62.25;101439.56;4997131;28;20536;-71
2023/06/10 07:57:51;;;;;;;13.50;7.13;;;;;;;22.57;59.69;101438.53;4997274;28;20030;-67
2023/06/10 08:00:17;;;;;;;10.90;6.70;;;;;;;22.67;60.27;101437.78;4996409;28;20083;-71
2023/06/10 08:02:42;;;;;;;15.00;7.75;;;;;;;22.63;59.57;101423.88;4962746;28;20117;-71
2023/06/10 08:05:08;;;;;;;14.50;6.93;;;;;;;22.76;58.37;101430.75;4996645;28;20076;-72
2023/06/10 08:07:33;;;;;;;14.38;6.97;;;;;;;22.92;59.53;101445.25;4976965;28;21500;-76
2023/06/10 08:09:59;;;;;;;24.48;7.40;;;;;;;23.00;58.58;101446.66;4995142;28;20026;-73
2023/06/10 08:12:24;;;;;;;14.13;7.35;;;;;;;23.31;57.97;101442.16;4996264;28;20022;-73
2023/06/10 08:14:50;;;;;;;12.93;7.20;;;;;;;23.90;55.08;101438.22;4996530;28;20125;-72
2023/06/10 08:17:15;;;;;;;16.13;6.50;;;;;;;25.56;52.06;101437.22;4979003;28;20025;-72
2023/06/10 08:19:40;;;;;;;11.25;6.65;;;;;;;27.85;45.13;101443.25;4996448;28;20038;-72
2023/06/10 08:22:06;;;;;;;13.23;6.07;;;;;;;29.60;41.45;101438.72;4996619;28;20045;-73
2023/06/10 08:24:31;;;;;;;11.07;6.00;;;;;;;30.88;38.25;101437.41;4996584;28;20057;-73
2023/06/10 08:26:57;;;;;;;14.60;5.55;;;;;;;31.95;36.25;101436.03;4997656;28;20108;-72
2023/06/10 08:29:23;;;;;;;10.82;6.03;;;;;;;33.00;33.39;101448.28;4995342;28;20030;-73
2023/06/10 08:31:48;;;;;;;10.68;6.15;;;;;;;33.34;33.41;101446.47;4995089;28;20030;-73
2023/06/10 08:34:14;;;;;;;12.85;6.70;;;;;;;33.83;31.88;101442.00;4977615;28;20508;-73
2023/06/10 08:36:39;;;;;;;14.43;5.90;;;;;;;33.75;31.59;101445.66;4996395;28;20053;-73
2023/06/10 08:39:05;;;;;;;13.30;6.90;;;;;;;34.26;31.24;101435.19;4996476;28;20096;-73
2023/06/10 08:41:36;;;;;;;11.65;6.22;;;;;;;34.54;31.36;101440.06;4977847;28;20133;-72
2023/06/10 08:44:18;;;;;;;10.88;6.20;;;;;;;34.71;31.23;101441.81;4996277;28;20029;-72
2023/06/10 08:46:45;;;;;;;15.65;6.25;;;;;;;34.73;28.57;101445.06;4996797;28;20037;-73
2023/06/10 08:49:18;;;;;;;14.60;6.57;;;;;;;34.75;29.32;101444.72;4995462;28;20068;-73
2023/06/10 08:51:45;;;;;;;9.73;5.50;;;;;;;34.33;28.47;101431.06;4996409;28;20405;-73
2023/06/10 08:54:19;;;;;;;11.15;5.90;;;;;;;34.45;30.28;101423.56;4995966;28;20121;-73
2023/06/10 08:56:49;;;;;;;8.02;5.03;;;;;;;34.88;28.94;101449.91;4995999;28;20018;-73
2023/06/10 08:59:16;;;;;;;10.15;4.90;;;;;;;34.62;28.39;101446.69;4996542;28;20105;-73
2023/06/10 09:01:42;;;;;;;8.80;5.07;;;;;;;34.22;29.84;101439.00;4977787;28;20568;-73
2023/06/10 09:04:08;;;;;;;10.48;5.75;;;;;;;33.13;30.89;101438.97;4977450;28;20037;-73
2023/06/10 09:06:35;;;;;;;8.38;5.07;;;;;;;31.86;34.33;101433.28;4978690;28;20473;-73
2023/06/10 09:09:02;;;;;;;11.75;5.93;;;;;;;30.50;35.29;101438.72;4995750;28;20033;-73
2023/06/10 09:11:28;;;;;;;17.48;5.93;;;;;;;29.72;36.42;101429.16;4994664;28;20050;-73
2023/06/10 09:13:54;;;;;;;11.73;6.13;;;;;;;28.93;37.50;101431.13;4996479;28;20132;-73
2023/06/10 09:16:19;;;;;;;9.73;5.80;;;;;;;28.15;40.18;101402.72;4977830;28;20036;-73
2023/06/10 09:18:45;;;;;;;11.75;5.47;;;;;;;27.93;41.77;101431.63;4977650;28;20034;-73
2023/06/10 09:21:10;;;;;;;7.82;5.63;;;;;;;27.69;41.44;101433.59;4996169;28;20030;-73
2023/06/10 09:23:37;;;;;;;15.05;6.35;;;;;;;27.45;42.33;101426.28;4994916;28;20050;-73
2023/06/10 09:26:08;;;;;;;10.30;5.93;;;;;;;27.35;44.11;101428.34;4995319;28;20081;-73
2023/06/10 09:28:34;;;;;;;10.25;7.20;;;;;;;27.18;43.72;101420.66;4996469;28;20026;-73
2023/06/10 09:31:05;;;;;;;10.25;5.90;;;;;;;27.04;43.02;101432.31;4994078;28;20037;-72
2023/06/10 09:33:31;;;;;;;8.63;6.18;;;;;;;26.81;43.77;101425.75;4977959;28;20030;-72
2023/06/10 09:36:00;;;;;;;12.00;5.95;;;;;;;26.89;44.53;101437.97;4994271;28;20503;-72
2023/06/10 09:38:31;;;;;;;8.93;6.10;;;;;;;26.72;43.04;101405.59;4995294;28;20093;-73
2023/06/10 09:40:56;;;;;;;9.38;5.82;;;;;;;26.88;42.68;101442.63;4994476;28;20022;-73
2023/06/10 09:43:22;;;;;;;9.30;6.00;;;;;;;26.75;43.12;101417.88;4995285;28;20063;-73
2023/06/10 09:45:54;;;;;;;12.23;6.72;;;;;;;26.76;43.28;101403.09;4977633;28;20017;-73
2023/06/10 09:48:19;;;;;;;12.50;7.00;;;;;;;26.98;42.25;101436.19;4978070;28;20042;-72
2023/06/10 09:50:46;;;;;;;11.23;5.55;;;;;;;27.07;43.16;101431.72;4994279;28;21835;-72
2023/06/10 09:53:12;;;;;;;10.85;6.15;;;;;;;27.08;44.38;101427.06;4995303;28;20476;-72
2023/06/10 09:55:39;;;;;;;16.30;7.38;;;;;;;27.12;44.02;101417.16;4994340;28;20511;-72
2023/06/10 09:58:04;;;;;;;16.02;6.28;;;;;;;27.37;43.68;101432.44;4960350;28;20031;-72
2023/06/10 10:00:33;;;;;;;13.82;6.05;;;;;;;27.44;42.11;101429.34;4976528;28;20040;-72
2023/06/10 10:02:59;;;;;;;10.45;6.00;;;;;;;27.31;41.93;101395.28;4995125;28;20032;-72
2023/06/10 10:05:25;;;;;;;13.98;7.18;;;;;;;27.54;41.55;101419.03;4993619;28;20026;-72
2023/06/10 10:07:52;;;;;;;9.68;6.15;;;;;;;27.63;41.92;101426.59;4994956;28;20039;-72
2023/06/10 10:10:19;;;;;;;8.52;5.78;;;;;;;27.69;42.43;101418.00;4976119;28;20022;-72
2023/06/10 10:12:47;;;;;;;12.80;6.32;;;;;;;27.74;42.33;101417.88;4976135;28;20377;-72
2023/06/10 10:15:13;;;;;;;11.48;7.35;;;;;;;27.54;40.05;101399.84;4977498;28;20581;-73
2023/06/10 10:17:51;;;;;;;14.88;6.68;;;;;;;27.55;42.67;101408.88;4994917;28;20028;-72
2023/06/10 10:20:26;;;;;;;12.18;5.75;;;;;;;27.54;42.98;101394.38;4992451;28;20474;-72
2023/06/10 10:22:55;;;;;;;11.32;6.93;;;;;;;27.72;42.75;101416.59;4994756;28;20041;-72
2023/06/10 10:25:29;;;;;;;10.30;6.40;;;;;;;27.83;42.50;101412.59;4993219;28;20097;-72
2023/06/10 10:28:26;;;;;;;10.00;6.38;;;;;;;27.85;43.03;101415.00;4994477;28;20514;-72
2023/06/10 10:30:58;;;;;;;9.02;6.07;;;;;;;27.90;42.66;101414.94;4978645;28;20042;-72
2023/06/10 10:33:36;;;;;;;11.48;6.40;;;;;;;28.01;41.90;101407.34;4994601;28;20032;-72
2023/06/10 10:36:02;;;;;;;11.98;6.05;;;;;;;28.02;41.86;101409.78;4994056;28;20544;-73
2023/06/10 10:38:28;;;;;;;12.20;6.60;;;;;;;28.09;42.22;101412.16;4994399;28;20204;-72
2023/06/10 10:40:59;;;;;;;13.32;6.47;;;;;;;28.10;40.36;101400.06;4993666;28;20034;-70
2023/06/10 10:43:25;;;;;;;13.77;6.95;;;;;;;28.14;41.21;101403.84;4976755;28;20026;-72
2023/06/10 10:46:11;;;;;;;9.35;6.45;;;;;;;28.20;41.06;101408.09;4993470;28;20420;-71
2023/06/10 10:48:38;;;;;;;11.70;7.45;;;;;;;28.24;41.33;101398.13;4994361;28;20476;-72
2023/06/10 10:51:03;;;;;;;9.15;6.25;;;;;;;28.34;39.95;101394.41;4993894;28;20184;-72
2023/06/10 10:53:29;;;;;;;11.05;7.00;;;;;;;28.44;42.01;101396.19;4976811;28;20035;-72
2023/06/10 10:56:07;;;;;;;14.20;7.50;;;;;;;28.42;40.25;101393.69;4994577;28;20113;-77
2023/06/10 10:58:33;;;;;;;12.90;6.35;;;;;;;28.41;40.46;101384.66;4976345;28;20028;-72
2023/06/10 11:00:59;;;;;;;9.88;7.13;;;;;;;28.57;38.99;101385.19;4993834;28;20026;-75
2023/06/10 11:03:29;;;;;;;9.90;6.85;;;;;;;28.69;39.15;101392.94;4993195;28;20033;-76
2023/06/10 11:05:57;;;;;;;9.55;5.68;;;;;;;28.63;39.57;101380.41;4993002;28;20139;-74
2023/06/10 11:08:28;;;;;;;10.27;7.00;;;;;;;28.69;39.67;101386.59;4992702;28;20040;-75
2023/06/10 11:10:53;;;;;;;10.25;6.65;;;;;;;28.66;37.88;101384.47;4993494;28;20018;-75
2023/06/10 11:13:20;;;;;;;9.43;6.43;;;;;;;28.61;38.86;101386.22;4993362;28;20175;-75
2023/06/10 11:15:47;;;;;;;9.40;5.97;;;;;;;28.62;36.47;101389.78;4993546;28;20034;-77